Weather at Vancouver International Airport

Public forecast

Using degrees Celsius for public forecast. Weather courtesy of forecast.io.

Current aviation weather report (METAR) for Vancouver International Airport

Retrieved 2021/07/27 08:00 UTC (21 minutes ago):

CYVR 270800Z 10004KT 20SM SKC 17/13 A2996 RMK SLP147 DENSITY ALT 300FT

Aviation forecast (TAF) for Vancouver International Airport

Retrieved 2021/07/27 06:40 UTC (2 hours ago):

TAF CYVR 270538Z 2706/2812 VRB03KT P6SM FEW200 FM271000 10008KT P6SM SCT012 TEMPO 2710/2718 BKN012 FM271800 26010KT P6SM SKC BECMG 2802/2804 VRB03KT RMK NXT FCST BY 270900Z